sensor_id;sensor_type;location;lat;lon;timestamp;temperature;humidity
20866;DHT22;10593;48.398;10.698;2024-02-16T00:00:24;10.90;54.30
20866;DHT22;10593;48.398;10.698;2024-02-16T00:02:50;10.90;54.30
20866;DHT22;10593;48.398;10.698;2024-02-16T00:05:16;10.90;54.30
20866;DHT22;10593;48.398;10.698;2024-02-16T00:07:42;10.80;54.20
20866;DHT22;10593;48.398;10.698;2024-02-16T00:10:08;10.80;54.30
20866;DHT22;10593;48.398;10.698;2024-02-16T00:12:35;10.80;54.30
20866;DHT22;10593;48.398;10.698;2024-02-16T00:15:02;10.80;54.20
20866;DHT22;10593;48.398;10.698;2024-02-16T00:17:28;10.80;54.20
20866;DHT22;10593;48.398;10.698;2024-02-16T00:19:57;10.80;54.10
20866;DHT22;10593;48.398;10.698;2024-02-16T00:22:23;10.80;54.20
20866;DHT22;10593;48.398;10.698;2024-02-16T00:24:49;10.80;54.20
20866;DHT22;10593;48.398;10.698;2024-02-16T00:27:15;10.70;54.00
20866;DHT22;10593;48.398;10.698;2024-02-16T00:29:42;10.70;54.10
20866;DHT22;10593;48.398;10.698;2024-02-16T00:32:08;10.70;54.20
20866;DHT22;10593;48.398;10.698;2024-02-16T00:34:36;10.70;54.30
20866;DHT22;10593;48.398;10.698;2024-02-16T00:37:02;10.70;54.40
20866;DHT22;10593;48.398;10.698;2024-02-16T00:39:35;10.70;54.50
20866;DHT22;10593;48.398;10.698;2024-02-16T00:42:02;10.70;54.70
20866;DHT22;10593;48.398;10.698;2024-02-16T00:44:28;10.70;54.80
20866;DHT22;10593;48.398;10.698;2024-02-16T00:46:54;10.70;54.90
20866;DHT22;10593;48.398;10.698;2024-02-16T00:49:20;10.70;55.00
20866;DHT22;10593;48.398;10.698;2024-02-16T00:51:45;10.60;54.80
20866;DHT22;10593;48.398;10.698;2024-02-16T00:54:11;10.60;54.70
20866;DHT22;10593;48.398;10.698;2024-02-16T00:56:37;10.60;54.60
20866;DHT22;10593;48.398;10.698;2024-02-16T00:59:04;10.60;54.70
20866;DHT22;10593;48.398;10.698;2024-02-16T01:01:31;10.60;54.80
20866;DHT22;10593;48.398;10.698;2024-02-16T01:03:56;10.60;54.90
20866;DHT22;10593;48.398;10.698;2024-02-16T01:06:22;10.60;55.00
20866;DHT22;10593;48.398;10.698;2024-02-16T01:08:47;10.60;55.10
20866;DHT22;10593;48.398;10.698;2024-02-16T01:11:13;10.50;54.90
20866;DHT22;10593;48.398;10.698;2024-02-16T01:13:39;10.50;54.90
20866;DHT22;10593;48.398;10.698;2024-02-16T01:16:05;10.50;54.80
20866;DHT22;10593;48.398;10.698;2024-02-16T01:18:32;10.50;54.90
20866;DHT22;10593;48.398;10.698;2024-02-16T01:20:58;10.50;54.90
20866;DHT22;10593;48.398;10.698;2024-02-16T01:23:24;10.50;54.90
20866;DHT22;10593;48.398;10.698;2024-02-16T01:25:50;10.50;55.00
20866;DHT22;10593;48.398;10.698;2024-02-16T01:28:16;10.50;55.40
20866;DHT22;10593;48.398;10.698;2024-02-16T01:30:42;10.40;55.50
20866;DHT22;10593;48.398;10.698;2024-02-16T01:33:08;10.50;55.70
20866;DHT22;10593;48.398;10.698;2024-02-16T01:35:34;10.50;55.80
20866;DHT22;10593;48.398;10.698;2024-02-16T01:38:00;10.50;55.50
20866;DHT22;10593;48.398;10.698;2024-02-16T01:40:27;10.50;55.00
20866;DHT22;10593;48.398;10.698;2024-02-16T01:42:53;10.40;54.90
20866;DHT22;10593;48.398;10.698;2024-02-16T01:45:19;10.40;54.80
20866;DHT22;10593;48.398;10.698;2024-02-16T01:47:47;10.40;54.80
20866;DHT22;10593;48.398;10.698;2024-02-16T01:50:16;10.40;54.80
20866;DHT22;10593;48.398;10.698;2024-02-16T01:52:44;10.30;54.80
20866;DHT22;10593;48.398;10.698;2024-02-16T01:55:12;10.30;54.80
20866;DHT22;10593;48.398;10.698;2024-02-16T01:57:39;10.30;54.80
20866;DHT22;10593;48.398;10.698;2024-02-16T02:00:06;10.30;54.80
20866;DHT22;10593;48.398;10.698;2024-02-16T02:02:36;10.30;54.80
20866;DHT22;10593;48.398;10.698;2024-02-16T02:05:03;10.30;55.00
20866;DHT22;10593;48.398;10.698;2024-02-16T02:07:29;10.20;55.10
20866;DHT22;10593;48.398;10.698;2024-02-16T02:09:55;10.20;55.20
20866;DHT22;10593;48.398;10.698;2024-02-16T02:12:22;10.20;55.30
20866;DHT22;10593;48.398;10.698;2024-02-16T02:14:48;10.20;55.20
20866;DHT22;10593;48.398;10.698;2024-02-16T02:17:15;10.20;55.20
20866;DHT22;10593;48.398;10.698;2024-02-16T02:19:41;10.20;55.10
20866;DHT22;10593;48.398;10.698;2024-02-16T02:22:19;10.20;55.10
20866;DHT22;10593;48.398;10.698;2024-02-16T02:24:46;10.20;55.20
20866;DHT22;10593;48.398;10.698;2024-02-16T02:27:14;10.20;55.20
20866;DHT22;10593;48.398;10.698;2024-02-16T02:29:41;10.20;55.30
20866;DHT22;10593;48.398;10.698;2024-02-16T02:32:08;10.20;55.50
20866;DHT22;10593;48.398;10.698;2024-02-16T02:34:34;10.10;55.40
20866;DHT22;10593;48.398;10.698;2024-02-16T02:37:01;10.20;55.50
20866;DHT22;10593;48.398;10.698;2024-02-16T02:39:29;10.20;55.50
20866;DHT22;10593;48.398;10.698;2024-02-16T02:41:55;10.20;55.50
20866;DHT22;10593;48.398;10.698;2024-02-16T02:44:21;10.20;55.60
20866;DHT22;10593;48.398;10.698;2024-02-16T02:46:46;10.20;55.70
20866;DHT22;10593;48.398;10.698;2024-02-16T02:49:12;10.20;55.70
20866;DHT22;10593;48.398;10.698;2024-02-16T02:51:38;10.10;55.50
20866;DHT22;10593;48.398;10.698;2024-02-16T02:54:04;10.10;56.00
20866;DHT22;10593;48.398;10.698;2024-02-16T02:56:29;10.10;55.40
20866;DHT22;10593;48.398;10.698;2024-02-16T02:58:55;10.10;55.40
20866;DHT22;10593;48.398;10.698;2024-02-16T03:01:21;10.10;55.50
20866;DHT22;10593;48.398;10.698;2024-02-16T03:03:47;10.10;55.50
20866;DHT22;10593;48.398;10.698;2024-02-16T03:06:18;10.10;55.60
20866;DHT22;10593;48.398;10.698;2024-02-16T03:08:44;10.10;55.70
20866;DHT22;10593;48.398;10.698;2024-02-16T03:11:10;10.00;55.50
20866;DHT22;10593;48.398;10.698;2024-02-16T03:13:36;10.00;55.40
20866;DHT22;10593;48.398;10.698;2024-02-16T03:16:03;10.00;55.30
20866;DHT22;10593;48.398;10.698;2024-02-16T03:18:30;10.00;55.30
20866;DHT22;10593;48.398;10.698;2024-02-16T03:20:56;10.00;55.30
20866;DHT22;10593;48.398;10.698;2024-02-16T03:23:22;10.00;55.20
20866;DHT22;10593;48.398;10.698;2024-02-16T03:25:48;10.00;55.20
20866;DHT22;10593;48.398;10.698;2024-02-16T03:28:14;9.90;56.00
20866;DHT22;10593;48.398;10.698;2024-02-16T03:30:42;9.90;56.10
20866;DHT22;10593;48.398;10.698;2024-02-16T03:33:09;9.90;56.20
20866;DHT22;10593;48.398;10.698;2024-02-16T03:35:35;9.90;56.30
20866;DHT22;10593;48.398;10.698;2024-02-16T03:38:03;9.90;56.30
20866;DHT22;10593;48.398;10.698;2024-02-16T03:40:29;9.90;56.40
20866;DHT22;10593;48.398;10.698;2024-02-16T03:42:55;9.90;56.40
20866;DHT22;10593;48.398;10.698;2024-02-16T03:45:21;9.90;56.50
20866;DHT22;10593;48.398;10.698;2024-02-16T03:47:48;9.90;56.40
20866;DHT22;10593;48.398;10.698;2024-02-16T03:50:14;9.90;56.40
20866;DHT22;10593;48.398;10.698;2024-02-16T03:52:40;9.90;56.30
20866;DHT22;10593;48.398;10.698;2024-02-16T03:55:07;9.80;56.70
20866;DHT22;10593;48.398;10.698;2024-02-16T03:57:33;9.80;56.10
20866;DHT22;10593;48.398;10.698;2024-02-16T03:59:59;9.80;55.90
20866;DHT22;10593;48.398;10.698;2024-02-16T04:02:24;9.80;55.80
20866;DHT22;10593;48.398;10.698;2024-02-16T04:04:51;9.80;55.80
20866;DHT22;10593;48.398;10.698;2024-02-16T04:07:17;9.70;55.80
20866;DHT22;10593;48.398;10.698;2024-02-16T04:09:43;9.70;55.90
20866;DHT22;10593;48.398;10.698;2024-02-16T04:12:08;9.70;55.90
20866;DHT22;10593;48.398;10.698;2024-02-16T04:14:35;9.70;55.90
20866;DHT22;10593;48.398;10.698;2024-02-16T04:17:01;9.60;55.90
20866;DHT22;10593;48.398;10.698;2024-02-16T04:19:27;9.60;55.90
20866;DHT22;10593;48.398;10.698;2024-02-16T04:21:52;9.60;55.90
20866;DHT22;10593;48.398;10.698;2024-02-16T04:24:18;9.60;56.00
20866;DHT22;10593;48.398;10.698;2024-02-16T04:26:44;9.60;55.90
20866;DHT22;10593;48.398;10.698;2024-02-16T04:29:10;9.60;56.00
20866;DHT22;10593;48.398;10.698;2024-02-16T04:31:39;9.60;56.00
20866;DHT22;10593;48.398;10.698;2024-02-16T04:34:05;9.50;55.90
20866;DHT22;10593;48.398;10.698;2024-02-16T04:36:31;9.50;55.90
20866;DHT22;10593;48.398;10.698;2024-02-16T04:38:57;9.50;55.90
20866;DHT22;10593;48.398;10.698;2024-02-16T04:41:22;9.50;55.80
20866;DHT22;10593;48.398;10.698;2024-02-16T04:43:48;9.50;55.80
20866;DHT22;10593;48.398;10.698;2024-02-16T04:46:17;9.50;55.80
20866;DHT22;10593;48.398;10.698;2024-02-16T04:48:43;9.50;55.90
20866;DHT22;10593;48.398;10.698;2024-02-16T04:51:10;9.40;55.80
20866;DHT22;10593;48.398;10.698;2024-02-16T04:53:36;9.40;56.50
20866;DHT22;10593;48.398;10.698;2024-02-16T04:56:02;9.40;56.10
20866;DHT22;10593;48.398;10.698;2024-02-16T04:58:28;9.40;56.10
20866;DHT22;10593;48.398;10.698;2024-02-16T05:00:54;9.40;56.30
20866;DHT22;10593;48.398;10.698;2024-02-16T05:03:19;9.40;56.30
20866;DHT22;10593;48.398;10.698;2024-02-16T05:05:45;9.40;56.40
20866;DHT22;10593;48.398;10.698;2024-02-16T05:08:11;9.40;56.60
20866;DHT22;10593;48.398;10.698;2024-02-16T05:10:37;9.40;56.60
20866;DHT22;10593;48.398;10.698;2024-02-16T05:13:03;9.40;56.60
20866;DHT22;10593;48.398;10.698;2024-02-16T05:15:30;9.40;56.50
20866;DHT22;10593;48.398;10.698;2024-02-16T05:17:56;9.40;56.40
20866;DHT22;10593;48.398;10.698;2024-02-16T05:20:23;9.40;56.30
20866;DHT22;10593;48.398;10.698;2024-02-16T05:22:48;9.40;56.10
20866;DHT22;10593;48.398;10.698;2024-02-16T05:25:18;9.30;55.80
20866;DHT22;10593;48.398;10.698;2024-02-16T05:27:45;9.40;55.80
20866;DHT22;10593;48.398;10.698;2024-02-16T05:30:13;9.30;55.60
20866;DHT22;10593;48.398;10.698;2024-02-16T05:32:41;9.20;55.40
20866;DHT22;10593;48.398;10.698;2024-02-16T05:35:08;9.30;55.50
20866;DHT22;10593;48.398;10.698;2024-02-16T05:37:41;9.20;55.40
20866;DHT22;10593;48.398;10.698;2024-02-16T05:40:17;9.20;56.10
20866;DHT22;10593;48.398;10.698;2024-02-16T05:42:52;9.20;55.70
20866;DHT22;10593;48.398;10.698;2024-02-16T05:45:19;9.20;55.90
20866;DHT22;10593;48.398;10.698;2024-02-16T05:47:49;9.20;56.10
20866;DHT22;10593;48.398;10.698;2024-02-16T05:50:16;9.10;56.10
20866;DHT22;10593;48.398;10.698;2024-02-16T05:52:43;9.10;56.20
20866;DHT22;10593;48.398;10.698;2024-02-16T05:55:10;9.10;56.20
20866;DHT22;10593;48.398;10.698;2024-02-16T05:57:37;9.10;56.30
20866;DHT22;10593;48.398;10.698;2024-02-16T06:00:05;9.10;56.20
20866;DHT22;10593;48.398;10.698;2024-02-16T06:02:32;9.10;56.10
20866;DHT22;10593;48.398;10.698;2024-02-16T06:04:59;9.10;56.00
20866;DHT22;10593;48.398;10.698;2024-02-16T06:07:25;9.10;55.90
20866;DHT22;10593;48.398;10.698;2024-02-16T06:09:51;9.10;55.90
20866;DHT22;10593;48.398;10.698;2024-02-16T06:12:19;9.10;55.90
20866;DHT22;10593;48.398;10.698;2024-02-16T06:14:45;9.10;55.80
20866;DHT22;10593;48.398;10.698;2024-02-16T06:17:11;9.10;55.70
20866;DHT22;10593;48.398;10.698;2024-02-16T06:19:42;9.00;55.50
20866;DHT22;10593;48.398;10.698;2024-02-16T06:22:09;9.00;55.40
20866;DHT22;10593;48.398;10.698;2024-02-16T06:24:35;9.00;55.30
20866;DHT22;10593;48.398;10.698;2024-02-16T06:27:01;9.00;55.20
20866;DHT22;10593;48.398;10.698;2024-02-16T06:29:28;8.90;55.00
20866;DHT22;10593;48.398;10.698;2024-02-16T06:31:55;8.90;55.00
20866;DHT22;10593;48.398;10.698;2024-02-16T06:34:21;8.90;55.00
20866;DHT22;10593;48.398;10.698;2024-02-16T06:36:47;8.90;55.00
20866;DHT22;10593;48.398;10.698;2024-02-16T06:39:15;8.90;55.00
20866;DHT22;10593;48.398;10.698;2024-02-16T06:41:46;8.90;55.10
20866;DHT22;10593;48.398;10.698;2024-02-16T06:44:15;8.90;55.00
20866;DHT22;10593;48.398;10.698;2024-02-16T06:46:42;8.90;54.90
20866;DHT22;10593;48.398;10.698;2024-02-16T06:49:08;8.90;54.90
20866;DHT22;10593;48.398;10.698;2024-02-16T06:51:34;8.90;54.80
20866;DHT22;10593;48.398;10.698;2024-02-16T06:53:59;8.90;54.80
20866;DHT22;10593;48.398;10.698;2024-02-16T06:56:26;8.90;54.70
20866;DHT22;10593;48.398;10.698;2024-02-16T06:58:51;8.90;54.80
20866;DHT22;10593;48.398;10.698;2024-02-16T07:01:17;8.80;54.80
20866;DHT22;10593;48.398;10.698;2024-02-16T07:03:46;8.80;54.90
20866;DHT22;10593;48.398;10.698;2024-02-16T07:06:12;8.80;55.00
20866;DHT22;10593;48.398;10.698;2024-02-16T07:08:43;8.80;55.10
20866;DHT22;10593;48.398;10.698;2024-02-16T07:11:10;8.80;55.20
20866;DHT22;10593;48.398;10.698;2024-02-16T07:13:40;8.80;55.40
20866;DHT22;10593;48.398;10.698;2024-02-16T07:16:08;8.80;55.50
20866;DHT22;10593;48.398;10.698;2024-02-16T07:18:33;8.80;55.50
20866;DHT22;10593;48.398;10.698;2024-02-16T07:20:59;8.80;55.60
20866;DHT22;10593;48.398;10.698;2024-02-16T07:23:25;8.80;55.60
20866;DHT22;10593;48.398;10.698;2024-02-16T07:25:51;8.90;55.80
20866;DHT22;10593;48.398;10.698;2024-02-16T07:28:20;8.80;55.80
20866;DHT22;10593;48.398;10.698;2024-02-16T07:30:47;8.90;55.90
20866;DHT22;10593;48.398;10.698;2024-02-16T07:33:12;8.80;55.90
20866;DHT22;10593;48.398;10.698;2024-02-16T07:35:38;8.80;56.00
20866;DHT22;10593;48.398;10.698;2024-02-16T07:38:04;8.90;56.30
20866;DHT22;10593;48.398;10.698;2024-02-16T07:40:30;8.90;56.40
20866;DHT22;10593;48.398;10.698;2024-02-16T07:42:57;8.90;56.50
20866;DHT22;10593;48.398;10.698;2024-02-16T07:45:22;8.90;56.70
20866;DHT22;10593;48.398;10.698;2024-02-16T07:47:48;9.00;56.90
20866;DHT22;10593;48.398;10.698;2024-02-16T07:50:18;9.10;57.70
20866;DHT22;10593;48.398;10.698;2024-02-16T07:52:48;9.30;57.60
20866;DHT22;10593;48.398;10.698;2024-02-16T07:55:15;9.40;57.30
20866;DHT22;10593;48.398;10.698;2024-02-16T07:57:44;9.50;57.10
20866;DHT22;10593;48.398;10.698;2024-02-16T08:00:10;9.60;56.80
20866;DHT22;10593;48.398;10.698;2024-02-16T08:02:36;9.60;56.50
20866;DHT22;10593;48.398;10.698;2024-02-16T08:05:04;9.70;56.40
20866;DHT22;10593;48.398;10.698;2024-02-16T08:07:31;9.70;56.10
20866;DHT22;10593;48.398;10.698;2024-02-16T08:09:57;9.70;56.00
20866;DHT22;10593;48.398;10.698;2024-02-16T08:12:22;9.70;56.00
20866;DHT22;10593;48.398;10.698;2024-02-16T08:14:49;9.70;56.00
20866;DHT22;10593;48.398;10.698;2024-02-16T08:17:14;9.60;56.00
20866;DHT22;10593;48.398;10.698;2024-02-16T08:19:40;9.60;56.20
20866;DHT22;10593;48.398;10.698;2024-02-16T08:22:07;9.60;56.30
20866;DHT22;10593;48.398;10.698;2024-02-16T08:24:34;9.60;56.60
20866;DHT22;10593;48.398;10.698;2024-02-16T08:27:00;9.60;56.70
20866;DHT22;10593;48.398;10.698;2024-02-16T08:29:26;9.60;57.00
20866;DHT22;10593;48.398;10.698;2024-02-16T08:31:52;9.60;57.30
20866;DHT22;10593;48.398;10.698;2024-02-16T08:34:19;9.60;57.70
20866;DHT22;10593;48.398;10.698;2024-02-16T08:36:48;9.50;57.70
20866;DHT22;10593;48.398;10.698;2024-02-16T08:39:16;9.60;58.00
20866;DHT22;10593;48.398;10.698;2024-02-16T08:41:43;9.60;58.10
20866;DHT22;10593;48.398;10.698;2024-02-16T08:44:10;9.60;58.30
20866;DHT22;10593;48.398;10.698;2024-02-16T08:46:38;9.70;58.50
20866;DHT22;10593;48.398;10.698;2024-02-16T08:49:05;9.70;58.50
20866;DHT22;10593;48.398;10.698;2024-02-16T08:51:34;9.70;58.50
20866;DHT22;10593;48.398;10.698;2024-02-16T08:54:00;9.80;58.50
20866;DHT22;10593;48.398;10.698;2024-02-16T08:56:27;9.80;58.60
20866;DHT22;10593;48.398;10.698;2024-02-16T08:58:53;9.80;58.70
20866;DHT22;10593;48.398;10.698;2024-02-16T09:01:33;9.90;58.90
20866;DHT22;10593;48.398;10.698;2024-02-16T09:03:59;9.90;59.10
20866;DHT22;10593;48.398;10.698;2024-02-16T09:06:26;10.00;58.20
20866;DHT22;10593;48.398;10.698;2024-02-16T09:08:52;10.00;58.30
20866;DHT22;10593;48.398;10.698;2024-02-16T09:11:18;10.00;58.40
20866;DHT22;10593;48.398;10.698;2024-02-16T09:13:44;10.10;58.60
20866;DHT22;10593;48.398;10.698;2024-02-16T09:16:10;10.10;58.90
20866;DHT22;10593;48.398;10.698;2024-02-16T09:18:35;10.20;59.20
20866;DHT22;10593;48.398;10.698;2024-02-16T09:21:04;10.30;59.30
20866;DHT22;10593;48.398;10.698;2024-02-16T09:23:35;10.30;59.20
20866;DHT22;10593;48.398;10.698;2024-02-16T09:26:01;10.40;59.40
20866;DHT22;10593;48.398;10.698;2024-02-16T09:28:30;10.50;59.40
20866;DHT22;10593;48.398;10.698;2024-02-16T09:30:56;10.50;59.70
20866;DHT22;10593;48.398;10.698;2024-02-16T09:33:22;10.60;59.90
20866;DHT22;10593;48.398;10.698;2024-02-16T09:35:49;10.70;60.20
20866;DHT22;10593;48.398;10.698;2024-02-16T09:38:15;10.80;60.50
20866;DHT22;10593;48.398;10.698;2024-02-16T09:40:41;10.80;60.60
20866;DHT22;10593;48.398;10.698;2024-02-16T09:43:07;10.90;60.80
20866;DHT22;10593;48.398;10.698;2024-02-16T09:45:33;11.00;60.90
20866;DHT22;10593;48.398;10.698;2024-02-16T09:47:59;11.10;60.80
20866;DHT22;10593;48.398;10.698;2024-02-16T09:50:25;11.20;60.90
20866;DHT22;10593;48.398;10.698;2024-02-16T09:52:54;11.20;60.70
20866;DHT22;10593;48.398;10.698;2024-02-16T09:55:21;11.30;60.70
20866;DHT22;10593;48.398;10.698;2024-02-16T09:57:58;11.40;60.80
20866;DHT22;10593;48.398;10.698;2024-02-16T10:00:26;11.50;60.90
20866;DHT22;10593;48.398;10.698;2024-02-16T10:02:53;11.50;60.80
20866;DHT22;10593;48.398;10.698;2024-02-16T10:05:22;11.60;61.00
20866;DHT22;10593;48.398;10.698;2024-02-16T10:07:48;11.70;61.00
20866;DHT22;10593;48.398;10.698;2024-02-16T10:13:05;11.80;60.90
20866;DHT22;10593;48.398;10.698;2024-02-16T10:15:35;11.90;60.60
20866;DHT22;10593;48.398;10.698;2024-02-16T10:18:02;12.00;60.80
20866;DHT22;10593;48.398;10.698;2024-02-16T10:20:30;12.10;60.80
20866;DHT22;10593;48.398;10.698;2024-02-16T10:23:10;12.10;60.70
20866;DHT22;10593;48.398;10.698;2024-02-16T10:25:40;12.20;60.50
20866;DHT22;10593;48.398;10.698;2024-02-16T10:28:10;12.30;60.40
20866;DHT22;10593;48.398;10.698;2024-02-16T10:30:40;12.40;60.20
20866;DHT22;10593;48.398;10.698;2024-02-16T10:33:11;12.40;60.10
20866;DHT22;10593;48.398;10.698;2024-02-16T10:35:41;12.50;60.00
20866;DHT22;10593;48.398;10.698;2024-02-16T10:38:08;12.60;60.00
20866;DHT22;10593;48.398;10.698;2024-02-16T10:40:40;12.70;60.10
20866;DHT22;10593;48.398;10.698;2024-02-16T10:43:08;12.80;60.00
20866;DHT22;10593;48.398;10.698;2024-02-16T10:45:36;12.80;59.80
20866;DHT22;10593;48.398;10.698;2024-02-16T10:48:04;12.90;59.60
20866;DHT22;10593;48.398;10.698;2024-02-16T10:50:35;12.90;59.50
20866;DHT22;10593;48.398;10.698;2024-02-16T10:53:05;13.10;59.30
20866;DHT22;10593;48.398;10.698;2024-02-16T10:55:37;13.10;59.10
20866;DHT22;10593;48.398;10.698;2024-02-16T10:58:02;13.20;59.10
20866;DHT22;10593;48.398;10.698;2024-02-16T11:00:28;13.20;59.00
20866;DHT22;10593;48.398;10.698;2024-02-16T11:02:55;13.30;58.90
20866;DHT22;10593;48.398;10.698;2024-02-16T11:05:36;13.30;58.70
20866;DHT22;10593;48.398;10.698;2024-02-16T11:08:12;13.30;58.50
20866;DHT22;10593;48.398;10.698;2024-02-16T11:10:39;13.40;58.50
20866;DHT22;10593;48.398;10.698;2024-02-16T11:13:05;13.40;58.50
20866;DHT22;10593;48.398;10.698;2024-02-16T11:15:32;13.50;58.50
20866;DHT22;10593;48.398;10.698;2024-02-16T11:18:03;13.50;58.30
20866;DHT22;10593;48.398;10.698;2024-02-16T11:20:36;13.60;58.30
20866;DHT22;10593;48.398;10.698;2024-02-16T11:23:09;13.60;58.10
20866;DHT22;10593;48.398;10.698;2024-02-16T11:25:36;13.60;58.10
20866;DHT22;10593;48.398;10.698;2024-02-16T11:28:02;13.60;58.00
20866;DHT22;10593;48.398;10.698;2024-02-16T11:30:34;13.70;57.60
20866;DHT22;10593;48.398;10.698;2024-02-16T11:33:01;13.70;57.60
20866;DHT22;10593;48.398;10.698;2024-02-16T11:35:26;13.70;57.60
20866;DHT22;10593;48.398;10.698;2024-02-16T11:37:52;13.70;57.60
20866;DHT22;10593;48.398;10.698;2024-02-16T11:40:20;13.70;57.60
20866;DHT22;10593;48.398;10.698;2024-02-16T11:42:46;13.80;57.70
20866;DHT22;10593;48.398;10.698;2024-02-16T11:45:12;13.80;57.50
20866;DHT22;10593;48.398;10.698;2024-02-16T11:47:38;13.80;57.40
20866;DHT22;10593;48.398;10.698;2024-02-16T11:50:06;13.90;57.40
20866;DHT22;10593;48.398;10.698;2024-02-16T11:52:43;13.90;57.30
20866;DHT22;10593;48.398;10.698;2024-02-16T11:55:10;14.00;57.40
20866;DHT22;10593;48.398;10.698;2024-02-16T11:57:38;14.00;57.30
20866;DHT22;10593;48.398;10.698;2024-02-16T12:00:06;14.00;57.20
20866;DHT22;10593;48.398;10.698;2024-02-16T12:02:40;14.10;57.20
20866;DHT22;10593;48.398;10.698;2024-02-16T12:05:06;14.10;57.10
20866;DHT22;10593;48.398;10.698;2024-02-16T12:07:33;14.10;57.00
20866;DHT22;10593;48.398;10.698;2024-02-16T12:10:03;14.10;57.60
20866;DHT22;10593;48.398;10.698;2024-02-16T12:12:31;14.10;57.00
20866;DHT22;10593;48.398;10.698;2024-02-16T12:14:58;14.20;57.10
20866;DHT22;10593;48.398;10.698;2024-02-16T12:17:24;14.20;56.90
20866;DHT22;10593;48.398;10.698;2024-02-16T12:19:51;14.30;56.90
20866;DHT22;10593;48.398;10.698;2024-02-16T12:22:18;14.30;56.60
20866;DHT22;10593;48.398;10.698;2024-02-16T12:24:48;14.30;56.60
20866;DHT22;10593;48.398;10.698;2024-02-16T12:27:18;14.30;56.50
20866;DHT22;10593;48.398;10.698;2024-02-16T12:29:44;14.40;56.50
20866;DHT22;10593;48.398;10.698;2024-02-16T12:32:09;14.40;56.50
20866;DHT22;10593;48.398;10.698;2024-02-16T12:34:35;14.40;56.40
20866;DHT22;10593;48.398;10.698;2024-02-16T12:37:05;14.40;56.50
20866;DHT22;10593;48.398;10.698;2024-02-16T12:39:35;14.40;56.40
20866;DHT22;10593;48.398;10.698;2024-02-16T12:42:01;14.50;56.50
20866;DHT22;10593;48.398;10.698;2024-02-16T12:44:27;14.50;56.50
20866;DHT22;10593;48.398;10.698;2024-02-16T12:46:52;14.50;56.40
20866;DHT22;10593;48.398;10.698;2024-02-16T12:49:18;14.60;56.50
20866;DHT22;10593;48.398;10.698;2024-02-16T12:51:48;14.60;56.40
20866;DHT22;10593;48.398;10.698;2024-02-16T12:54:15;14.70;56.40
20866;DHT22;10593;48.398;10.698;2024-02-16T12:56:47;14.70;56.30
20866;DHT22;10593;48.398;10.698;2024-02-16T12:59:14;14.70;56.20
20866;DHT22;10593;48.398;10.698;2024-02-16T13:01:40;14.70;55.90
20866;DHT22;10593;48.398;10.698;2024-02-16T13:04:06;14.70;55.80
20866;DHT22;10593;48.398;10.698;2024-02-16T13:06:32;14.70;55.70
20866;DHT22;10593;48.398;10.698;2024-02-16T13:08:58;14.70;55.60
20866;DHT22;10593;48.398;10.698;2024-02-16T13:11:24;14.70;55.50
20866;DHT22;10593;48.398;10.698;2024-02-16T13:13:50;14.70;55.40
20866;DHT22;10593;48.398;10.698;2024-02-16T13:16:17;14.80;55.40
20866;DHT22;10593;48.398;10.698;2024-02-16T13:18:43;14.80;55.30
20866;DHT22;10593;48.398;10.698;2024-02-16T13:21:09;14.80;55.30
20866;DHT22;10593;48.398;10.698;2024-02-16T13:23:34;14.80;55.30
20866;DHT22;10593;48.398;10.698;2024-02-16T13:26:00;14.80;55.30
20866;DHT22;10593;48.398;10.698;2024-02-16T13:28:26;14.80;55.40
20866;DHT22;10593;48.398;10.698;2024-02-16T13:30:51;14.80;55.30
20866;DHT22;10593;48.398;10.698;2024-02-16T13:33:17;14.90;55.30
20866;DHT22;10593;48.398;10.698;2024-02-16T13:35:43;14.90;55.40
20866;DHT22;10593;48.398;10.698;2024-02-16T13:38:08;14.90;55.30
20866;DHT22;10593;48.398;10.698;2024-02-16T13:40:34;14.90;55.30
20866;DHT22;10593;48.398;10.698;2024-02-16T13:43:01;14.90;55.30
20866;DHT22;10593;48.398;10.698;2024-02-16T13:45:50;14.90;55.30
20866;DHT22;10593;48.398;10.698;2024-02-16T13:48:18;14.90;55.30
20866;DHT22;10593;48.398;10.698;2024-02-16T13:50:47;14.90;55.30
20866;DHT22;10593;48.398;10.698;2024-02-16T13:53:14;14.90;55.90
20866;DHT22;10593;48.398;10.698;2024-02-16T13:55:41;14.90;55.30
20866;DHT22;10593;48.398;10.698;2024-02-16T13:58:09;15.00;55.40
20866;DHT22;10593;48.398;10.698;2024-02-16T14:00:38;15.00;55.40
20866;DHT22;10593;48.398;10.698;2024-02-16T14:03:09;15.00;55.40
20866;DHT22;10593;48.398;10.698;2024-02-16T14:05:37;15.00;55.30
20866;DHT22;10593;48.398;10.698;2024-02-16T14:08:04;15.00;55.30
20866;DHT22;10593;48.398;10.698;2024-02-16T14:10:31;15.00;55.30
20866;DHT22;10593;48.398;10.698;2024-02-16T14:12:58;15.00;55.20
20866;DHT22;10593;48.398;10.698;2024-02-16T14:15:23;15.00;55.10
20866;DHT22;10593;48.398;10.698;2024-02-16T14:17:50;15.00;55.10
20866;DHT22;10593;48.398;10.698;2024-02-16T14:20:15;15.00;55.10
20866;DHT22;10593;48.398;10.698;2024-02-16T14:22:41;15.00;55.10
20866;DHT22;10593;48.398;10.698;2024-02-16T14:25:06;15.00;55.10
20866;DHT22;10593;48.398;10.698;2024-02-16T14:27:35;15.10;55.20
20866;DHT22;10593;48.398;10.698;2024-02-16T14:30:02;15.00;55.20
20866;DHT22;10593;48.398;10.698;2024-02-16T14:32:28;15.10;55.30
20866;DHT22;10593;48.398;10.698;2024-02-16T14:34:54;15.10;55.30
20866;DHT22;10593;48.398;10.698;2024-02-16T14:37:19;15.10;55.10
20866;DHT22;10593;48.398;10.698;2024-02-16T14:39:45;15.10;55.10
20866;DHT22;10593;48.398;10.698;2024-02-16T14:42:12;15.10;55.10
20866;DHT22;10593;48.398;10.698;2024-02-16T14:44:37;15.10;55.10
20866;DHT22;10593;48.398;10.698;2024-02-16T14:47:03;15.10;55.10
20866;DHT22;10593;48.398;10.698;2024-02-16T14:49:29;15.10;55.10
20866;DHT22;10593;48.398;10.698;2024-02-16T14:51:56;15.10;55.10
20866;DHT22;10593;48.398;10.698;2024-02-16T14:54:23;15.10;55.10
20866;DHT22;10593;48.398;10.698;2024-02-16T14:56:54;15.10;55.10
20866;DHT22;10593;48.398;10.698;2024-02-16T14:59:19;15.10;55.10
20866;DHT22;10593;48.398;10.698;2024-02-16T15:01:45;15.10;55.10
20866;DHT22;10593;48.398;10.698;2024-02-16T15:04:11;15.10;55.20
20866;DHT22;10593;48.398;10.698;2024-02-16T15:06:37;15.10;55.20
20866;DHT22;10593;48.398;10.698;2024-02-16T15:09:03;15.10;55.30
20866;DHT22;10593;48.398;10.698;2024-02-16T15:11:30;15.10;55.30
20866;DHT22;10593;48.398;10.698;2024-02-16T15:13:56;15.10;55.40
20866;DHT22;10593;48.398;10.698;2024-02-16T15:16:22;15.10;55.40
20866;DHT22;10593;48.398;10.698;2024-02-16T15:18:47;15.10;55.40
20866;DHT22;10593;48.398;10.698;2024-02-16T15:21:13;15.10;55.50
20866;DHT22;10593;48.398;10.698;2024-02-16T15:23:39;15.10;55.50